PWSweather.com
Personal Weather Stations
Station Observations
238362
MilevskoCZ 39901

MilevskoCZ 39901

Lat: 49.44648754, Lon: 14.36534017

Elevation: 1558

Station Type: W-8681

http://www.meteomilevsko.cz

Latest ConditionsUpdated 3:30:07 PM GMT+01:01 Monday, Mar 25, 2019
Currently Today's Max Today's Min Today's Average
Temperature 46.2°F7.9°C 46.6°F8.1°C 40.1°F4.5°C 43.6°F6.4°C
Dew Point 26.1°F-3.3°C 43.0°F6.1°C 26.1°F-3.3°C 37.1°F2.8°C
Winds 11.4 mph WNW18.3 kmh WNW 21.3 mph -34.3 kmh - - 8.1 mph 13.0 kmh
Wind Gusts 27.3 mph43.9 kmh 32.7 mph52.6 kmh - -
Humidity 45% 100% 45% 80%
Pressure 30.00 in1015.9 mb 30.11 in1019.6 mb 29.99 in1015.6 mb -
Precipitation - 0.02 in0.5 mm - -
Hour Temp Dew Point Humidity Winds Wind Gusts Pressure Precip Precip Rate Daily Precip Total
03:30 PM 46.2°F7.9°C 26.1°F-3.3°C 45% 11.4 mph WNW18.3 kmh WNW 27.3 mph43.9 kmh 30.00 in1015.9 mb 0.00 in0.0 mm 0.00 in0.0 mm 0.02 in0.5 mm
03:15 PM 45.1°F7.3°C 29.5°F-1.4°C 54% 11.4 mph WNW18.3 kmh WNW 21.3 mph34.3 kmh 30.00 in1015.9 mb 0.00 in0.0 mm 0.00 in0.0 mm 0.02 in0.5 mm
03:00 PM 45.3°F7.4°C 29.7°F-1.3°C 54% 14.5 mph WNW23.3 kmh WNW 20.6 mph33.2 kmh 30.00 in1015.9 mb 0.00 in0.0 mm 0.00 in0.0 mm 0.02 in0.5 mm
02:45 PM 45.5°F7.5°C 27.0°F-2.8°C 48% 12.1 mph W19.5 kmh W 22.1 mph35.6 kmh 30.00 in1015.9 mb 0.00 in0.0 mm 0.00 in0.0 mm 0.02 in0.5 mm
02:30 PM 46.6°F8.1°C 26.4°F-3.1°C 45% 20.6 mph WNW33.2 kmh WNW 25.1 mph40.4 kmh 30.00 in1015.9 mb 0.00 in0.0 mm 0.00 in0.0 mm 0.02 in0.5 mm
02:15 PM 46.6°F8.1°C 27.4°F-2.6°C 47% 15.9 mph W25.6 kmh W 24.4 mph39.3 kmh 30.00 in1015.9 mb 0.00 in0.0 mm 0.00 in0.0 mm 0.02 in0.5 mm
02:00 PM 45.7°F7.6°C 29.5°F-1.4°C 53% 17.4 mph W28.0 kmh W 28.2 mph45.4 kmh 30.00 in1015.9 mb 0.00 in0.0 mm 0.00 in0.0 mm 0.02 in0.5 mm
01:45 PM 45.7°F7.6°C 32.2°F0.1°C 59% 15.2 mph W24.5 kmh W 22.1 mph35.6 kmh 30.00 in1015.9 mb 0.00 in0.0 mm 0.00 in0.0 mm 0.02 in0.5 mm
01:30 PM 44.4°F6.9°C 35.3°F1.8°C 70% 9.2 mph WNW14.8 kmh WNW 24.4 mph39.3 kmh 30.00 in1015.9 mb 0.00 in0.0 mm 0.00 in0.0 mm 0.02 in0.5 mm
01:15 PM 44.4°F6.9°C 34.2°F1.2°C 67% 19.7 mph W31.7 kmh W 30.4 mph48.9 kmh 30.00 in1015.9 mb 0.00 in0.0 mm 0.00 in0.0 mm 0.02 in0.5 mm
01:00 PM 42.8°F6.0°C 36.1°F2.3°C 77% 16.8 mph WNW27.0 kmh WNW 19.7 mph31.7 kmh 30.01 in1016.3 mb 0.00 in0.0 mm 0.00 in0.0 mm 0.02 in0.5 mm
12:45 PM 40.8°F4.9°C 32.8°F0.4°C 73% 13.6 mph W21.9 kmh W 25.9 mph41.7 kmh 30.02 in1016.6 mb 0.00 in0.0 mm 0.00 in0.0 mm 0.02 in0.5 mm
12:30 PM 41.7°F5.4°C 32.7°F0.4°C 70% 21.3 mph WNW34.3 kmh WNW 32.7 mph52.6 kmh 30.01 in1016.3 mb 0.00 in0.0 mm 0.00 in0.0 mm 0.02 in0.5 mm
12:15 PM 45.0°F7.2°C 33.5°F0.8°C 64% 12.1 mph W19.5 kmh W 18.3 mph29.5 kmh 30.00 in1015.9 mb 0.00 in0.0 mm 0.00 in0.0 mm 0.02 in0.5 mm
12:00 PM 44.4°F6.9°C 32.6°F0.3°C 63% 10.7 mph WNW17.2 kmh WNW 20.6 mph33.2 kmh 30.00 in1015.9 mb 0.00 in0.0 mm 0.00 in0.0 mm 0.02 in0.5 mm
11:45 AM 45.9°F7.7°C 31.1°F-0.5°C 56% 9.8 mph W15.8 kmh W 20.6 mph33.2 kmh 30.01 in1016.3 mb 0.00 in0.0 mm 0.00 in0.0 mm 0.02 in0.5 mm
11:30 AM 45.0°F7.2°C 31.9°F-0.1°C 60% 13.0 mph NW20.9 kmh NW 22.8 mph36.7 kmh 30.01 in1016.3 mb 0.00 in0.0 mm 0.00 in0.0 mm 0.02 in0.5 mm
11:15 AM 46.0°F7.8°C 28.9°F-1.7°C 51% 13.0 mph W20.9 kmh W 22.1 mph35.6 kmh 30.00 in1015.9 mb 0.00 in0.0 mm 0.00 in0.0 mm 0.02 in0.5 mm
11:00 AM 45.5°F7.5°C 29.8°F-1.2°C 54% 13.0 mph W20.9 kmh W 20.6 mph33.2 kmh 30.01 in1016.3 mb 0.00 in0.0 mm 0.00 in0.0 mm 0.02 in0.5 mm
10:45 AM 46.0°F7.8°C 30.3°F-0.9°C 54% 12.1 mph WNW19.5 kmh WNW 20.6 mph33.2 kmh 30.00 in1015.9 mb 0.01 in0.3 mm 0.00 in0.0 mm 0.02 in0.5 mm
10:30 AM 45.3°F7.4°C 31.0°F-0.6°C 57% 13.0 mph W20.9 kmh W 20.6 mph33.2 kmh 30.01 in1016.3 mb 0.01 in0.3 mm 0.00 in0.0 mm 0.02 in0.5 mm
10:15 AM 45.5°F7.5°C 30.3°F-0.9°C 55% 15.2 mph W24.5 kmh W 22.8 mph36.7 kmh 30.01 in1016.3 mb 0.01 in0.3 mm 0.00 in0.0 mm 0.02 in0.5 mm
10:00 AM 45.3°F7.4°C 32.3°F0.2°C 60% 18.3 mph W29.5 kmh W 22.1 mph35.6 kmh 30.00 in1015.9 mb 0.01 in0.3 mm 0.01 in0.3 mm 0.02 in0.5 mm
09:45 AM 45.1°F7.3°C 33.7°F0.9°C 64% 16.8 mph W27.0 kmh W 22.1 mph35.6 kmh 29.99 in1015.6 mb 0.00 in0.0 mm 0.00 in0.0 mm 0.01 in0.3 mm
09:30 AM 44.6°F7.0°C 32.4°F0.2°C 62% 15.2 mph W24.5 kmh W 28.2 mph45.4 kmh 30.00 in1015.9 mb 0.00 in0.0 mm 0.00 in0.0 mm 0.01 in0.3 mm
09:15 AM 45.3°F7.4°C 34.3°F1.3°C 65% 12.1 mph W19.5 kmh W 23.5 mph37.8 kmh 30.00 in1015.9 mb 0.00 in0.0 mm 0.00 in0.0 mm 0.01 in0.3 mm
09:00 AM 45.1°F7.3°C 37.4°F3.0°C 74% 12.1 mph W19.5 kmh W 22.1 mph35.6 kmh 30.00 in1015.9 mb 0.00 in0.0 mm 0.00 in0.0 mm 0.01 in0.3 mm
08:45 AM 44.6°F7.0°C 38.5°F3.6°C 79% 12.1 mph W19.5 kmh W 16.8 mph27.0 kmh 30.00 in1015.9 mb 0.00 in0.0 mm 0.00 in0.0 mm 0.01 in0.3 mm
08:30 AM 44.1°F6.7°C 40.1°F4.5°C 86% 10.7 mph WNW17.2 kmh WNW 17.4 mph28.0 kmh 30.01 in1016.3 mb 0.00 in0.0 mm 0.00 in0.0 mm 0.01 in0.3 mm
08:15 AM 42.6°F5.9°C 40.5°F4.7°C 92% 6.9 mph WNW11.1 kmh WNW 11.4 mph18.3 kmh 30.01 in1016.3 mb 0.00 in0.0 mm 0.00 in0.0 mm 0.01 in0.3 mm
08:00 AM 42.8°F6.0°C 41.2°F5.1°C 94% 3.8 mph WNW6.1 kmh WNW 6.9 mph11.1 kmh 30.01 in1016.3 mb 0.01 in0.3 mm 0.00 in0.0 mm 0.01 in0.3 mm
07:45 AM 42.4°F5.8°C 41.1°F5.1°C 95% 3.1 mph W5.0 kmh W 7.6 mph12.2 kmh 30.01 in1016.3 mb 0.01 in0.3 mm 0.00 in0.0 mm 0.01 in0.3 mm
07:30 AM 41.9°F5.5°C 40.3°F4.6°C 94% 5.4 mph W8.7 kmh W 8.3 mph13.4 kmh 30.01 in1016.3 mb 0.01 in0.3 mm 0.00 in0.0 mm 0.01 in0.3 mm
07:15 AM 41.5°F5.3°C 39.9°F4.4°C 94% 5.4 mph WNW8.7 kmh WNW 7.6 mph12.2 kmh 30.02 in1016.6 mb 0.01 in0.3 mm 0.04 in1.0 mm 0.01 in0.3 mm
07:00 AM 41.9°F5.5°C 40.6°F4.8°C 95% 3.8 mph W6.1 kmh W 8.3 mph13.4 kmh 30.02 in1016.6 mb 0.00 in0.0 mm 0.00 in0.0 mm 0.00 in0.0 mm
06:45 AM 41.7°F5.4°C 40.7°F4.8°C 96% 3.1 mph W5.0 kmh W 6.9 mph11.1 kmh 30.02 in1016.6 mb 0.00 in0.0 mm 0.00 in0.0 mm 0.00 in0.0 mm
06:30 AM 41.4°F5.2°C 40.6°F4.8°C 97% 3.8 mph W6.1 kmh W 6.9 mph11.1 kmh 30.02 in1016.6 mb 0.00 in0.0 mm 0.00 in0.0 mm 0.00 in0.0 mm
06:15 AM 41.0°F5.0°C 40.2°F4.6°C 97% 2.2 mph W3.5 kmh W 6.0 mph9.7 kmh 30.02 in1016.6 mb 0.00 in0.0 mm 0.00 in0.0 mm 0.00 in0.0 mm
06:00 AM 40.1°F4.5°C 39.1°F3.9°C 96% 4.5 mph W7.2 kmh W 6.0 mph9.7 kmh 30.03 in1016.9 mb 0.00 in0.0 mm 0.00 in0.0 mm 0.00 in0.0 mm
05:45 AM 40.3°F4.6°C 39.2°F4.0°C 96% 2.2 mph W3.5 kmh W 4.5 mph7.2 kmh 30.03 in1016.9 mb 0.00 in0.0 mm 0.00 in0.0 mm 0.00 in0.0 mm
05:30 AM 40.8°F4.9°C 39.8°F4.3°C 96% 1.6 mph W2.6 kmh W 5.4 mph8.7 kmh 30.03 in1016.9 mb 0.00 in0.0 mm 0.00 in0.0 mm 0.00 in0.0 mm
05:15 AM 41.7°F5.4°C 40.9°F4.9°C 97% 3.8 mph W6.1 kmh W 6.9 mph11.1 kmh 30.04 in1017.3 mb 0.00 in0.0 mm 0.00 in0.0 mm 0.00 in0.0 mm
05:00 AM 42.1°F5.6°C 41.6°F5.3°C 98% 3.8 mph W6.1 kmh W 6.9 mph11.1 kmh 30.04 in1017.3 mb 0.00 in0.0 mm 0.00 in0.0 mm 0.00 in0.0 mm
04:45 AM 42.6°F5.9°C 42.4°F5.8°C 99% 6.0 mph W9.7 kmh W 9.2 mph14.8 kmh 30.04 in1017.3 mb 0.00 in0.0 mm 0.00 in0.0 mm 0.00 in0.0 mm
04:30 AM 43.0°F6.1°C 42.7°F5.9°C 99% 6.9 mph W11.1 kmh W 9.2 mph14.8 kmh 30.05 in1017.6 mb 0.00 in0.0 mm 0.00 in0.0 mm 0.00 in0.0 mm
04:15 AM 43.0°F6.1°C 43.0°F6.1°C 100% 5.4 mph W8.7 kmh W 7.6 mph12.2 kmh 30.05 in1017.6 mb 0.00 in0.0 mm 0.00 in0.0 mm 0.00 in0.0 mm
04:00 AM 43.0°F6.1°C 42.7°F5.9°C 99% 4.5 mph W7.2 kmh W 7.6 mph12.2 kmh 30.06 in1017.9 mb 0.00 in0.0 mm 0.00 in0.0 mm 0.00 in0.0 mm
03:45 AM 43.0°F6.1°C 42.5°F5.8°C 98% 3.1 mph W5.0 kmh W 6.0 mph9.7 kmh 30.06 in1017.9 mb 0.00 in0.0 mm 0.00 in0.0 mm 0.00 in0.0 mm
03:30 AM 43.2°F6.2°C 42.6°F5.9°C 98% 2.2 mph W3.5 kmh W 6.0 mph9.7 kmh 30.06 in1017.9 mb 0.00 in0.0 mm 0.00 in0.0 mm 0.00 in0.0 mm
03:15 AM 43.2°F6.2°C 42.4°F5.8°C 97% 4.5 mph W7.2 kmh W 6.0 mph9.7 kmh 30.07 in1018.3 mb 0.00 in0.0 mm 0.00 in0.0 mm 0.00 in0.0 mm
03:00 AM 43.2°F6.2°C 42.1°F5.6°C 96% 2.2 mph W3.5 kmh W 4.5 mph7.2 kmh 30.07 in1018.3 mb 0.00 in0.0 mm 0.00 in0.0 mm 0.00 in0.0 mm
02:45 AM 43.2°F6.2°C 41.8°F5.4°C 95% 2.2 mph W3.5 kmh W 5.4 mph8.7 kmh 30.07 in1018.3 mb 0.00 in0.0 mm 0.00 in0.0 mm 0.00 in0.0 mm
02:30 AM 43.3°F6.3°C 42.0°F5.6°C 95% 2.2 mph W3.5 kmh W 4.5 mph7.2 kmh 30.08 in1018.6 mb 0.00 in0.0 mm 0.00 in0.0 mm 0.00 in0.0 mm
02:15 AM 43.5°F6.4°C 41.9°F5.5°C 94% 1.6 mph W2.6 kmh W 3.8 mph6.1 kmh 30.08 in1018.6 mb 0.00 in0.0 mm 0.00 in0.0 mm 0.00 in0.0 mm
02:00 AM 43.7°F6.5°C 42.1°F5.6°C 94% 1.6 mph WNW2.6 kmh WNW 3.1 mph5.0 kmh 30.09 in1019.0 mb 0.00 in0.0 mm 0.00 in0.0 mm 0.00 in0.0 mm
01:45 AM 43.5°F6.4°C 41.9°F5.5°C 94% Calm Calm -- 30.09 in1019.0 mb 0.00 in0.0 mm 0.00 in0.0 mm 0.00 in0.0 mm
01:30 AM 43.5°F6.4°C 41.9°F5.5°C 94% Calm Calm 0.7 mph1.1 kmh 30.09 in1019.0 mb 0.00 in0.0 mm 0.00 in0.0 mm 0.00 in0.0 mm
01:15 AM 43.7°F6.5°C 42.4°F5.8°C 95% 0.7 mph NW1.1 kmh NW 5.4 mph8.7 kmh 30.09 in1019.0 mb 0.00 in0.0 mm 0.00 in0.0 mm 0.00 in0.0 mm
01:00 AM 43.5°F6.4°C 42.5°F5.8°C 96% 1.6 mph NW2.6 kmh NW 3.1 mph5.0 kmh 30.09 in1019.0 mb 0.00 in0.0 mm 0.00 in0.0 mm 0.00 in0.0 mm
12:45 AM 43.5°F6.4°C 42.7°F5.9°C 97% 0.7 mph NW1.1 kmh NW 3.1 mph5.0 kmh 30.10 in1019.3 mb 0.00 in0.0 mm 0.00 in0.0 mm 0.00 in0.0 mm
12:30 AM 43.0°F6.1°C 42.5°F5.8°C 98% 0.7 mph N1.1 kmh N 1.6 mph2.6 kmh 30.11 in1019.6 mb 0.00 in0.0 mm 0.00 in0.0 mm 0.00 in0.0 mm
12:15 AM 42.8°F6.0°C 42.3°F5.7°C 98% Calm Calm 2.2 mph3.5 kmh 30.11 in1019.6 mb 0.00 in0.0 mm 0.00 in0.0 mm 0.00 in0.0 mm
12:00 AM 42.4°F5.8°C 41.9°F5.5°C 98% 0.7 mph W1.1 kmh W 3.8 mph6.1 kmh 30.11 in1019.6 mb 0.00 in0.0 mm 0.00 in0.0 mm 0.00 in0.0 mm